Time;durP1;ratioP1;P1;durP2;ratioP2;P2;SDS_P1;SDS_P2;PMS_P1;PMS_P2;Temp;Humidity;BMP_temperature;BMP_pressure;BME280_temperature;BME280_humidity;BME280_pressure;Samples;Min_cycle;Max_cycle;Signal;HPM_P1;HPM_P2
2023/10/16 00:01:03;;;;;;;2.30;1.38;;;16.70;92.40;;;;;;4956640;29;20027;-35
2023/10/16 00:03:30;;;;;;;2.47;1.40;;;16.70;92.10;;;;;;4956731;28;20027;-34
2023/10/16 00:05:56;;;;;;;2.40;1.40;;;16.70;92.10;;;;;;4956910;28;20480;-34
2023/10/16 00:08:22;;;;;;;1.60;1.08;;;16.70;92.00;;;;;;4956413;29;20063;-35
2023/10/16 00:10:56;;;;;;;1.83;1.17;;;16.70;92.00;;;;;;4956435;28;20477;-34
2023/10/16 00:13:28;;;;;;;2.65;1.48;;;16.70;92.00;;;;;;4956488;29;20385;-34
2023/10/16 00:15:58;;;;;;;2.58;1.40;;;16.70;92.00;;;;;;4956282;29;20030;-34
2023/10/16 00:18:33;;;;;;;2.22;1.30;;;16.70;92.00;;;;;;4956360;29;20157;-34
2023/10/16 00:21:00;;;;;;;3.00;1.40;;;16.70;92.00;;;;;;4954950;28;20035;-40
2023/10/16 00:23:25;;;;;;;2.53;1.23;;;16.70;91.90;;;;;;4956287;29;20023;-36
2023/10/16 00:25:51;;;;;;;2.75;1.42;;;16.70;91.90;;;;;;4956133;28;20043;-39
2023/10/16 00:28:23;;;;;;;2.80;1.35;;;16.70;91.90;;;;;;4956047;29;20553;-37
2023/10/16 00:30:50;;;;;;;2.38;1.20;;;16.70;91.90;;;;;;4956081;29;20171;-34
2023/10/16 00:33:16;;;;;;;3.67;1.20;;;16.70;91.90;;;;;;4956071;29;20059;-36
2023/10/16 00:35:45;;;;;;;2.53;1.33;;;16.70;91.90;;;;;;4955869;29;20034;-36
2023/10/16 00:38:14;;;;;;;3.55;1.20;;;16.70;91.90;;;;;;4956138;29;20098;-34
2023/10/16 00:40:44;;;;;;;2.13;1.20;;;16.60;91.80;;;;;;4955760;28;20046;-38
2023/10/16 00:43:12;;;;;;;2.28;1.20;;;16.60;91.90;;;;;;4970742;28;20023;-35
2023/10/16 00:46:00;;;;;;;2.38;1.15;;;16.60;91.80;;;;;;4955826;29;20448;-36
2023/10/16 00:48:27;;;;;;;2.08;1.20;;;16.60;91.80;;;;;;4955783;29;20055;-37
2023/10/16 00:50:54;;;;;;;2.53;0.98;;;16.60;91.80;;;;;;4956010;28;20039;-34
2023/10/16 00:53:23;;;;;;;1.67;0.93;;;16.60;91.80;;;;;;4956129;28;20035;-35
2023/10/16 00:55:55;;;;;;;2.95;1.15;;;16.60;91.80;;;;;;4955091;28;20034;-35
2023/10/16 00:58:21;;;;;;;2.65;1.10;;;16.60;91.80;;;;;;4955585;28;20114;-35
2023/10/16 01:00:48;;;;;;;2.10;1.00;;;16.60;91.80;;;;;;4955585;28;20029;-35
2023/10/16 01:03:16;;;;;;;3.10;1.33;;;16.60;91.80;;;;;;4955580;29;20037;-35
2023/10/16 01:05:42;;;;;;;1.98;1.10;;;16.60;91.80;;;;;;4954157;29;20023;-34
2023/10/16 01:08:10;;;;;;;1.90;1.10;;;16.60;92.10;;;;;;4955402;29;20019;-36
2023/10/16 01:10:40;;;;;;;2.20;1.10;;;16.60;91.70;;;;;;4955206;28;20756;-34
2023/10/16 01:13:12;;;;;;;4.00;1.25;;;16.60;91.70;;;;;;4955338;28;20308;-35
2023/10/16 01:15:46;;;;;;;2.13;0.90;;;16.60;91.70;;;;;;4955223;29;20019;-34
2023/10/16 01:18:15;;;;;;;2.40;0.73;;;16.50;91.70;;;;;;4955349;28;20015;-34
2023/10/16 01:20:51;;;;;;;2.40;1.10;;;16.50;91.70;;;;;;4955232;29;20043;-36
2023/10/16 01:23:21;;;;;;;2.42;1.20;;;16.50;91.60;;;;;;4955269;29;20019;-35
2023/10/16 01:25:49;;;;;;;1.48;0.88;;;16.50;91.60;;;;;;4955019;29;20301;-35
2023/10/16 01:28:16;;;;;;;2.33;1.13;;;16.50;91.60;;;;;;4954990;29;20544;-38
2023/10/16 01:30:43;;;;;;;2.20;1.10;;;16.50;91.60;;;;;;4955079;28;20082;-34
2023/10/16 01:33:09;;;;;;;1.90;1.00;;;16.50;91.60;;;;;;4955048;28;20023;-35
2023/10/16 01:35:38;;;;;;;2.13;1.00;;;16.50;91.60;;;;;;4954940;28;20038;-35
2023/10/16 01:38:17;;;;;;;1.40;0.90;;;16.50;91.60;;;;;;4954742;29;20393;-35
2023/10/16 01:41:09;;;;;;;1.55;0.80;;;16.50;91.60;;;;;;4955312;29;20035;-36
2023/10/16 01:43:37;;;;;;;2.10;0.73;;;16.50;91.60;;;;;;4954987;28;20083;-38
2023/10/16 01:46:13;;;;;;;2.25;1.00;;;16.50;91.60;;;;;;4954628;29;20023;-37
2023/10/16 01:48:41;;;;;;;1.73;0.90;;;16.50;91.50;;;;;;4954516;29;20027;-40
2023/10/16 01:51:10;;;;;;;1.23;0.88;;;16.50;91.50;;;;;;4954672;28;20023;-37
2023/10/16 01:53:36;;;;;;;1.58;0.90;;;16.40;91.50;;;;;;4954918;29;20050;-38
2023/10/16 01:56:12;;;;;;;2.15;1.10;;;16.40;91.50;;;;;;4954455;29;20541;-38
2023/10/16 01:58:42;;;;;;;1.92;0.98;;;16.40;91.40;;;;;;4954535;29;20051;-40
2023/10/16 02:01:09;;;;;;;1.83;0.95;;;16.40;91.80;;;;;;4954436;28;20046;-38
2023/10/16 02:03:35;;;;;;;2.83;1.10;;;16.40;91.50;;;;;;4954507;28;20034;-42
2023/10/16 02:06:00;;;;;;;1.17;0.80;;;16.40;91.40;;;;;;4954380;29;20028;-39
2023/10/16 02:08:26;;;;;;;2.10;0.90;;;16.40;91.40;;;;;;4953466;28;20499;-37
2023/10/16 02:10:52;;;;;;;2.05;0.95;;;16.40;91.70;;;;;;4954615;29;20113;-37
2023/10/16 02:13:18;;;;;;;1.85;0.93;;;16.40;91.40;;;;;;4954225;28;20153;-41
2023/10/16 02:15:44;;;;;;;2.63;0.90;;;16.40;91.40;;;;;;4954019;29;20031;-40
2023/10/16 02:18:18;;;;;;;1.73;0.80;;;16.30;91.40;;;;;;4954297;28;20065;-37
2023/10/16 02:20:49;;;;;;;1.38;0.85;;;16.40;91.40;;;;;;4954291;28;20034;-39
2023/10/16 02:23:15;;;;;;;1.65;0.90;;;16.30;91.40;;;;;;4954832;28;20392;-37
2023/10/16 02:25:41;;;;;;;2.80;0.90;;;16.30;91.30;;;;;;4954743;29;20525;-37
2023/10/16 02:28:08;;;;;;;1.95;0.82;;;16.40;91.30;;;;;;4954039;29;20039;-37
2023/10/16 02:30:38;;;;;;;1.92;0.85;;;16.30;91.30;;;;;;4953890;28;20055;-37
2023/10/16 02:33:26;;;;;;;1.48;0.80;;;16.30;91.30;;;;;;4953987;28;20019;-37
2023/10/16 02:35:53;;;;;;;1.60;0.98;;;16.30;91.30;;;;;;4953884;28;20020;-38
2023/10/16 02:38:29;;;;;;;1.90;1.00;;;16.30;91.20;;;;;;4953591;28;20098;-37
2023/10/16 02:41:00;;;;;;;1.95;0.95;;;16.30;91.20;;;;;;4953774;29;20448;-37
2023/10/16 02:43:27;;;;;;;2.10;0.90;;;16.30;91.20;;;;;;4953955;28;20054;-37
2023/10/16 02:45:53;;;;;;;1.77;0.90;;;16.30;91.20;;;;;;4953645;29;20481;-38
2023/10/16 02:48:20;;;;;;;2.33;0.85;;;16.30;91.20;;;;;;4953643;29;20525;-37
2023/10/16 02:50:50;;;;;;;3.67;0.80;;;16.30;91.20;;;;;;4953654;28;20039;-37
2023/10/16 02:53:21;;;;;;;0.68;0.50;;;16.30;91.20;;;;;;4953659;28;20059;-37
2023/10/16 02:55:57;;;;;;;2.53;0.80;;;16.30;91.10;;;;;;4953452;28;20500;-38
2023/10/16 02:58:28;;;;;;;1.10;0.65;;;16.30;91.10;;;;;;4953512;29;20030;-37
2023/10/16 03:01:06;;;;;;;1.63;0.80;;;16.20;91.10;;;;;;4953582;29;20027;-37
2023/10/16 03:03:32;;;;;;;3.78;0.80;;;16.30;91.20;;;;;;4953473;28;20035;-36
2023/10/16 03:05:59;;;;;;;1.90;0.98;;;16.30;91.20;;;;;;4951974;29;20485;-37
2023/10/16 03:08:32;;;;;;;2.05;0.75;;;16.20;91.00;;;;;;4953354;29;20102;-37
2023/10/16 03:10:59;;;;;;;3.03;1.35;;;16.20;91.10;;;;;;4953309;29;20030;-37
2023/10/16 03:13:25;;;;;;;1.70;0.75;;;16.20;91.00;;;;;;4953434;28;20026;-37
2023/10/16 03:16:38;;;;;;;2.13;0.90;;;16.20;91.00;;;;;;4953637;29;20362;-37
2023/10/16 03:18:43;;;;;;;1.80;1.05;;;16.20;91.00;;;;;;4952403;28;20386;-37
2023/10/16 03:23:49;;;;;;;1.88;0.90;;;16.20;91.00;;;;;;4953326;29;20493;-37
2023/10/16 03:26:27;;;;;;;3.08;1.10;;;16.20;91.00;;;;;;4953162;28;20035;-37
2023/10/16 03:28:54;;;;;;;1.92;0.70;;;16.20;91.00;;;;;;4953231;29;20027;-37
2023/10/16 03:31:20;;;;;;;1.70;0.70;;;16.20;91.00;;;;;;4953160;29;20092;-37
2023/10/16 03:33:47;;;;;;;0.98;0.60;;;16.20;90.90;;;;;;4953339;28;20038;-37
2023/10/16 03:36:13;;;;;;;1.10;0.70;;;16.20;91.00;;;;;;4953003;28;20020;-37
2023/10/16 03:38:41;;;;;;;1.45;0.75;;;16.20;91.00;;;;;;4952935;29;20547;-37
2023/10/16 03:43:57;;;;;;;1.40;0.77;;;16.20;90.90;;;;;;4953148;29;20392;-38
2023/10/16 03:46:28;;;;;;;1.52;0.90;;;16.10;90.90;;;;;;4953063;28;20430;-37
2023/10/16 03:48:57;;;;;;;1.40;0.73;;;16.10;90.90;;;;;;4953056;29;20034;-37
2023/10/16 03:51:24;;;;;;;1.42;0.60;;;16.10;90.90;;;;;;4952790;29;20155;-37
2023/10/16 03:53:52;;;;;;;1.65;0.73;;;16.10;90.80;;;;;;4953025;28;20023;-37
2023/10/16 03:56:21;;;;;;;1.63;0.95;;;16.10;90.90;;;;;;4952797;29;20102;-39
2023/10/16 03:58:47;;;;;;;1.15;0.65;;;16.10;90.80;;;;;;4952881;29;20027;-37
2023/10/16 04:01:14;;;;;;;3.03;0.90;;;16.10;90.80;;;;;;4952967;28;20031;-37
2023/10/16 04:03:50;;;;;;;1.13;0.65;;;16.10;90.80;;;;;;4952933;29;20031;-38
2023/10/16 04:06:19;;;;;;;2.20;0.80;;;16.10;90.80;;;;;;4952825;28;20032;-37
2023/10/16 04:08:48;;;;;;;0.98;0.70;;;16.10;90.80;;;;;;4953158;28;20448;-38
2023/10/16 04:11:18;;;;;;;2.20;1.02;;;16.10;90.80;;;;;;4952756;29;20035;-38
2023/10/16 04:13:49;;;;;;;1.48;0.90;;;16.00;90.70;;;;;;4952805;29;20025;-39
2023/10/16 04:16:30;;;;;;;0.90;0.70;;;16.10;90.80;;;;;;4952588;29;20027;-37
2023/10/16 04:19:34;;;;;;;1.65;0.90;;;16.00;90.70;;;;;;4952757;28;20038;-38
2023/10/16 04:22:08;;;;;;;1.48;0.80;;;16.10;90.80;;;;;;4952680;28;20466;-37
2023/10/16 04:24:40;;;;;;;2.13;0.70;;;16.10;90.80;;;;;;4951347;29;20043;-38
2023/10/16 04:30:32;;;;;;;0.93;0.73;;;16.00;90.70;;;;;;4952674;28;20110;-41
2023/10/16 04:46:54;;;;;;;3.95;2.17;;;;;;;;;;4955975;28;20126;-37
2023/10/16 04:49:14;;;;;;;3.65;2.05;;;;;;;;;;4955663;28;20101;-37
2023/10/16 04:51:52;;;;;;;5.22;2.00;;;13.10;86.20;;;;;;4955794;28;20028;-38
2023/10/16 04:55:08;;;;;;;3.15;1.98;;;13.10;87.60;;;;;;4955865;28;20027;-38
2023/10/16 04:59:58;;;;;;;3.10;1.73;;;13.60;88.30;;;;;;4954487;29;20433;-40
2023/10/16 05:02:41;;;;;;;2.38;1.70;;;13.80;88.50;;;;;;4955513;28;20031;-38
2023/10/16 05:08:04;;;;;;;5.63;1.63;;;14.20;88.50;;;;;;4955806;29;20186;-38
2023/10/16 05:13:39;;;;;;;2.78;1.75;;;14.50;88.50;;;;;;4933277;28;20122;-38
2023/10/16 06:16:20;;;;;;;2.78;1.40;;;15.20;88.50;;;;;;4954347;29;20039;-36
2023/10/16 06:18:47;;;;;;;2.78;1.42;;;15.20;89.20;;;;;;4954220;28;20122;-39
2023/10/16 06:21:17;;;;;;;2.03;1.20;;;15.20;88.50;;;;;;4954112;29;20031;-34
2023/10/16 06:23:49;;;;;;;2.42;1.20;;;15.20;88.60;;;;;;4954319;28;20027;-35
2023/10/16 06:26:21;;;;;;;2.53;1.23;;;15.20;88.50;;;;;;4953978;29;20031;-34
2023/10/16 06:28:49;;;;;;;1.63;1.20;;;15.20;88.50;;;;;;4954009;28;20035;-37
2023/10/16 06:31:22;;;;;;;1.85;1.17;;;15.20;88.60;;;;;;4954321;29;20027;-35
2023/10/16 06:33:58;;;;;;;2.55;1.33;;;15.20;88.60;;;;;;4953897;28;20047;-35
2023/10/16 06:36:24;;;;;;;5.47;1.50;;;15.30;88.60;;;;;;4953795;28;20026;-35
2023/10/16 06:38:53;;;;;;;2.45;1.33;;;15.30;88.70;;;;;;4953687;29;20027;-34
2023/10/16 06:41:22;;;;;;;4.53;2.13;;;15.30;89.50;;;;;;4953807;29;20524;-36
2023/10/16 06:43:49;;;;;;;3.17;1.67;;;15.10;80.30;;;;;;4953804;29;20032;-34
2023/10/16 06:46:27;;;;;;;7.93;2.20;;;13.90;82.20;;;;;;4953567;29;20389;-34
2023/10/16 06:48:53;;;;;;;5.15;2.22;;;13.30;86.30;;;;;;4953668;29;20440;-39
2023/10/16 06:51:25;;;;;;;4.03;1.60;;;13.00;87.70;;;;;;4953723;29;20019;-37
2023/10/16 06:53:53;;;;;;;2.80;1.58;;;12.90;88.90;;;;;;4953384;28;20027;-36
2023/10/16 06:56:31;;;;;;;3.70;1.65;;;12.90;89.70;;;;;;4953497;28;20085;-35
2023/10/16 06:58:57;;;;;;;3.28;1.67;;;12.90;90.10;;;;;;4953439;29;20062;-34
2023/10/16 07:01:25;;;;;;;3.05;1.42;;;13.00;90.30;;;;;;4953804;28;20035;-36
2023/10/16 07:03:54;;;;;;;3.65;1.50;;;13.00;90.40;;;;;;4953566;28;20023;-34
2023/10/16 07:06:24;;;;;;;3.63;1.50;;;13.10;90.50;;;;;;4953314;29;20154;-35
2023/10/16 07:08:51;;;;;;;3.63;1.65;;;13.20;90.60;;;;;;4953438;29;20118;-36
2023/10/16 07:11:19;;;;;;;6.53;1.50;;;13.30;90.70;;;;;;4968028;28;20124;-34
2023/10/16 07:13:44;;;;;;;2.25;1.63;;;13.30;90.70;;;;;;4953459;28;20477;-34
2023/10/16 07:16:10;;;;;;;3.90;1.50;;;13.40;90.70;;;;;;4953310;29;20024;-35
2023/10/16 07:18:42;;;;;;;2.97;1.58;;;13.40;90.70;;;;;;4953334;29;20070;-35
2023/10/16 07:21:08;;;;;;;5.00;1.90;;;13.50;90.80;;;;;;4953408;28;20027;-37
2023/10/16 07:23:35;;;;;;;2.95;1.48;;;13.60;90.80;;;;;;4953309;28;20485;-40
2023/10/16 07:26:10;;;;;;;2.90;1.60;;;13.60;90.70;;;;;;4953014;28;20034;-34
2023/10/16 07:28:38;;;;;;;2.90;1.30;;;13.70;90.80;;;;;;4953303;29;20027;-38
2023/10/16 07:31:05;;;;;;;4.32;1.60;;;13.80;90.80;;;;;;4953083;29;20548;-34
2023/10/16 07:33:31;;;;;;;3.45;1.55;;;13.90;90.80;;;;;;4953236;28;20476;-34
2023/10/16 07:35:59;;;;;;;2.22;1.30;;;13.90;90.80;;;;;;4953514;28;20132;-34
2023/10/16 07:38:28;;;;;;;4.60;1.40;;;14.00;90.70;;;;;;4952854;29;20035;-36
2023/10/16 07:40:59;;;;;;;2.38;1.40;;;14.10;90.80;;;;;;4953697;29;20032;-39
2023/10/16 07:43:27;;;;;;;3.15;1.50;;;14.10;90.70;;;;;;4953280;29;20035;-38
2023/10/16 07:48:44;;;;;;;2.33;1.27;;;14.20;90.70;;;;;;4953514;29;20051;-38
2023/10/16 07:51:17;;;;;;;4.57;1.80;;;14.30;90.70;;;;;;4951622;28;20031;-41
2023/10/16 07:53:43;;;;;;;2.70;1.50;;;14.30;90.70;;;;;;4953072;29;20026;-40
2023/10/16 07:59:06;;;;;;;3.75;1.90;;;14.50;90.70;;;;;;4953001;29;20114;-41
2023/10/16 08:07:04;;;;;;;3.65;1.90;;;14.60;90.60;;;;;;4955793;29;20500;-38
2023/10/16 08:09:48;;;;;;;3.75;1.70;;;14.70;90.70;;;;;;4956621;28;20047;-38
2023/10/16 08:12:34;;;;;;;;;;;14.70;90.60;;;;;;4956970;28;20389;-38
2023/10/16 08:15:08;;;;;;;3.03;1.88;;;14.70;90.60;;;;;;4956406;28;19941;-41
2023/10/16 08:17:34;;;;;;;2.58;1.90;;;14.80;90.70;;;;;;4955387;28;20031;-38
2023/10/16 08:20:03;;;;;;;3.58;1.90;;;14.80;90.60;;;;;;4956240;29;20054;-41
2023/10/16 08:22:29;;;;;;;2.72;1.70;;;14.90;90.60;;;;;;4956504;29;20035;-40
2023/10/16 08:25:04;;;;;;;6.65;1.77;;;14.90;90.60;;;;;;4956199;29;20419;-38
2023/10/16 08:27:50;;;;;;;3.13;2.00;;;15.00;91.00;;;;;;4956268;29;20032;-44
2023/10/16 08:30:18;;;;;;;4.28;2.00;;;15.10;90.60;;;;;;4956099;28;20027;-38
2023/10/16 08:35:17;;;;;;;3.15;1.90;;;15.10;90.60;;;;;;4956284;29;20118;-38
2023/10/16 08:37:43;;;;;;;5.03;2.30;;;15.20;90.70;;;;;;4956113;28;20031;-40
2023/10/16 08:40:19;;;;;;;2.88;2.05;;;15.20;90.60;;;;;;4955910;29;20043;-42
2023/10/16 08:43:00;;;;;;;3.15;1.80;;;15.20;90.60;;;;;;4956047;28;20020;-44
2023/10/16 08:45:29;;;;;;;4.93;2.15;;;15.30;90.70;;;;;;4955805;29;20020;-43
2023/10/16 08:47:57;;;;;;;3.70;2.13;;;15.30;90.70;;;;;;4955856;29;20030;-41
2023/10/16 08:50:32;;;;;;;3.45;1.90;;;15.30;90.70;;;;;;4956005;28;20026;-38
2023/10/16 08:52:58;;;;;;;4.03;2.40;;;15.40;90.70;;;;;;4955870;29;20024;-42
2023/10/16 08:55:27;;;;;;;3.53;2.22;;;15.40;90.70;;;;;;4955615;28;20023;-39
2023/10/16 08:57:53;;;;;;;4.22;2.20;;;15.40;90.70;;;;;;4955610;29;20151;-42
2023/10/16 09:00:23;;;;;;;10.95;5.57;;;15.50;91.00;;;;;;4955439;29;20118;-41
2023/10/16 09:02:53;;;;;;;9.75;4.60;;;14.80;90.60;;;;;;4955641;29;20029;-41
2023/10/16 09:05:20;;;;;;;6.13;3.75;;;14.70;91.30;;;;;;4955507;29;20032;-39
2023/10/16 09:07:48;;;;;;;7.38;3.50;;;14.80;91.40;;;;;;4955608;29;20023;-39
2023/10/16 09:10:15;;;;;;;7.32;3.28;;;15.00;91.20;;;;;;4955292;28;20031;-39
2023/10/16 09:12:54;;;;;;;6.72;3.50;;;15.20;91.00;;;;;;4955519;28;20031;-39
2023/10/16 09:15:24;;;;;;;6.75;3.45;;;15.50;90.80;;;;;;4955432;28;20054;-41
2023/10/16 09:17:51;;;;;;;5.55;3.28;;;15.70;90.70;;;;;;4955065;28;20051;-39
2023/10/16 09:20:22;;;;;;;6.35;3.00;;;15.90;90.50;;;;;;4953949;28;20440;-38
2023/10/16 09:22:48;;;;;;;4.50;2.72;;;16.00;90.50;;;;;;4955284;28;20102;-39
2023/10/16 09:25:15;;;;;;;6.18;2.58;;;16.10;90.40;;;;;;4955170;28;20095;-39
2023/10/16 09:27:49;;;;;;;6.07;3.22;;;16.20;90.30;;;;;;4955320;28;20422;-41
2023/10/16 09:30:15;;;;;;;6.93;2.97;;;16.30;90.10;;;;;;4955021;28;20027;-39
2023/10/16 09:32:42;;;;;;;6.75;3.03;;;16.50;90.10;;;;;;4955169;29;20086;-41
2023/10/16 09:35:12;;;;;;;5.90;3.08;;;16.60;90.10;;;;;;4954880;29;20072;-39
2023/10/16 09:37:39;;;;;;;5.68;2.97;;;16.60;90.00;;;;;;4953675;28;20028;-38
2023/10/16 09:40:35;;;;;;;6.53;3.08;;;16.70;89.80;;;;;;4954816;29;20488;-39
2023/10/16 09:43:05;;;;;;;5.88;3.03;;;16.80;89.70;;;;;;4954933;28;20027;-39
2023/10/16 09:45:36;;;;;;;5.18;2.53;;;16.90;89.60;;;;;;4954624;29;20036;-37
2023/10/16 09:48:08;;;;;;;5.32;2.58;;;16.90;89.50;;;;;;4954743;29;20097;-38
2023/10/16 09:50:36;;;;;;;7.03;2.63;;;17.00;89.50;;;;;;4954585;29;20031;-39
2023/10/16 09:53:02;;;;;;;4.88;2.70;;;17.00;89.40;;;;;;4954721;28;20027;-38
2023/10/16 09:55:38;;;;;;;4.93;2.58;;;17.00;89.40;;;;;;4954986;29;20030;-38
2023/10/16 09:58:05;;;;;;;3.72;2.30;;;17.10;89.40;;;;;;4954448;29;20023;-38
2023/10/16 10:00:31;;;;;;;4.03;2.67;;;17.10;89.20;;;;;;4954469;29;20033;-38
2023/10/16 10:03:11;;;;;;;6.15;3.08;;;17.20;89.20;;;;;;4954490;29;20023;-41
2023/10/16 10:08:52;;;;;;;3.45;2.28;;;17.30;89.20;;;;;;4954546;29;20073;-39
2023/10/16 10:11:37;;;;;;;3.83;2.35;;;17.30;89.10;;;;;;4954309;28;20031;-42
2023/10/16 10:14:20;;;;;;;4.85;2.28;;;17.40;89.10;;;;;;4954362;29;20079;-39
2023/10/16 10:16:48;;;;;;;5.68;2.53;;;17.40;89.00;;;;;;4954170;28;20034;-38
2023/10/16 10:19:35;;;;;;;3.72;2.15;;;17.40;89.00;;;;;;4954209;29;20102;-40
2023/10/16 10:22:17;;;;;;;3.75;2.25;;;17.40;88.90;;;;;;4954194;28;20082;-41
2023/10/16 10:25:09;;;;;;;3.85;2.38;;;17.50;89.70;;;;;;4954014;28;20039;-38
2023/10/16 10:27:41;;;;;;;4.05;2.00;;;17.50;88.90;;;;;;4953848;28;20459;-38
2023/10/16 10:30:16;;;;;;;3.42;2.00;;;17.50;88.90;;;;;;4953764;28;20082;-39
2023/10/16 10:32:43;;;;;;;4.28;2.33;;;17.50;88.70;;;;;;4954071;28;20560;-40
2023/10/16 10:35:21;;;;;;;3.90;2.30;;;17.50;88.70;;;;;;4953848;28;20030;-39
2023/10/16 10:37:48;;;;;;;3.47;2.10;;;17.60;88.90;;;;;;4953721;29;20034;-41
2023/10/16 10:40:24;;;;;;;3.58;2.03;;;17.60;88.80;;;;;;4953863;29;20114;-41
2023/10/16 10:42:55;;;;;;;3.80;1.95;;;17.60;88.80;;;;;;4953907;28;20031;-41
2023/10/16 10:45:34;;;;;;;3.88;2.28;;;17.60;88.80;;;;;;4953691;29;20094;-38
2023/10/16 10:48:09;;;;;;;3.63;2.22;;;17.60;88.70;;;;;;4953607;29;20038;-41
2023/10/16 10:50:38;;;;;;;3.47;1.88;;;17.60;88.60;;;;;;4953644;28;20031;-42
2023/10/16 10:53:13;;;;;;;3.65;1.75;;;17.60;88.70;;;;;;4953760;28;20023;-40
2023/10/16 10:55:53;;;;;;;3.67;2.05;;;17.70;88.70;;;;;;4953516;29;20417;-38
2023/10/16 10:58:20;;;;;;;3.28;2.00;;;17.70;88.70;;;;;;4953540;28;20020;-45
2023/10/16 11:00:50;;;;;;;3.38;2.03;;;17.70;88.60;;;;;;4953502;28;20137;-44
2023/10/16 11:03:34;;;;;;;2.58;1.55;;;17.70;89.40;;;;;;4953595;28;20374;-41
2023/10/16 11:06:00;;;;;;;4.63;1.80;;;17.70;88.70;;;;;;4953347;29;20039;-39
2023/10/16 11:08:30;;;;;;;3.22;1.98;;;17.70;88.70;;;;;;4953383;29;20031;-42
2023/10/16 11:10:56;;;;;;;3.90;1.92;;;17.70;88.70;;;;;;4953216;28;20086;-40
2023/10/16 11:13:22;;;;;;;3.95;1.60;;;17.70;88.70;;;;;;4953508;29;20118;-41
2023/10/16 11:15:56;;;;;;;3.38;1.77;;;17.70;88.70;;;;;;4953425;29;20039;-38
2023/10/16 11:18:26;;;;;;;3.85;1.85;;;17.70;88.70;;;;;;4953634;29;20023;-39
2023/10/16 11:20:54;;;;;;;2.58;1.70;;;17.70;88.70;;;;;;4953427;28;20090;-40
2023/10/16 11:23:31;;;;;;;4.18;1.70;;;17.70;88.70;;;;;;4953740;28;20387;-38
2023/10/16 11:25:58;;;;;;;3.47;1.70;;;17.70;88.70;;;;;;4953323;29;20493;-44
2023/10/16 11:28:28;;;;;;;3.25;1.80;;;17.70;88.70;;;;;;4953298;28;20038;-41
2023/10/16 11:30:57;;;;;;;2.55;1.50;;;17.70;88.80;;;;;;4953188;28;20509;-40
2023/10/16 11:34:00;;;;;;;2.00;1.42;;;17.70;88.80;;;;;;4953160;28;20071;-42
2023/10/16 11:36:27;;;;;;;3.50;1.30;;;17.70;88.90;;;;;;4953122;28;20348;-41
2023/10/16 11:39:01;;;;;;;2.35;1.50;;;17.70;88.90;;;;;;4953008;28;20027;-43
2023/10/16 11:41:28;;;;;;;3.08;1.50;;;17.70;88.90;;;;;;4957098;29;20173;-44
2023/10/16 11:43:55;;;;;;;3.25;1.67;;;17.70;89.00;;;;;;4957110;28;20520;-37
2023/10/16 11:46:34;;;;;;;2.03;1.40;;;17.70;89.00;;;;;;4956764;28;20038;-40
2023/10/16 11:51:58;;;;;;;2.67;1.65;;;17.70;89.00;;;;;;4956854;29;20027;-42
2023/10/16 11:54:24;;;;;;;2.25;1.23;;;17.70;89.10;;;;;;4956918;29;20028;-42
2023/10/16 11:56:55;;;;;;;2.83;1.40;;;17.70;89.00;;;;;;4956546;29;20042;-40
2023/10/16 11:59:22;;;;;;;4.03;1.55;;;17.70;89.10;;;;;;4956747;29;20104;-41
2023/10/16 12:01:59;;;;;;;2.67;1.33;;;17.70;89.10;;;;;;4956671;29;20035;-43
2023/10/16 12:04:26;;;;;;;1.73;1.25;;;17.70;89.20;;;;;;4957085;28;20027;-38
2023/10/16 12:06:53;;;;;;;3.08;1.40;;;17.70;89.30;;;;;;4956593;28;20046;-41
2023/10/16 12:09:19;;;;;;;1.75;1.10;;;17.70;89.20;;;;;;4956390;29;20395;-41
2023/10/16 12:11:49;;;;;;;2.55;1.20;;;17.70;89.20;;;;;;4956647;28;20027;-40
2023/10/16 12:14:18;;;;;;;2.15;1.35;;;17.70;89.10;;;;;;4956529;28;20024;-44
2023/10/16 12:16:45;;;;;;;2.05;1.20;;;17.70;89.30;;;;;;4956338;28;20544;-39
2023/10/16 12:19:15;;;;;;;2.80;1.50;;;17.70;89.30;;;;;;4956411;28;20031;-39
2023/10/16 12:21:48;;;;;;;2.67;1.27;;;17.70;89.20;;;;;;4955005;29;20052;-41
2023/10/16 12:24:14;;;;;;;3.33;1.20;;;17.70;89.30;;;;;;4956288;29;20393;-40
2023/10/16 12:26:43;;;;;;;1.63;1.02;;;17.70;89.30;;;;;;4956243;28;20024;-41
2023/10/16 12:29:10;;;;;;;1.55;1.10;;;17.70;90.00;;;;;;4956384;28;20086;-42
2023/10/16 12:31:36;;;;;;;1.95;1.20;;;17.70;89.40;;;;;;4956301;28;20023;-39
2023/10/16 12:34:02;;;;;;;2.53;1.20;;;17.70;89.40;;;;;;4956182;29;20508;-38
2023/10/16 12:36:30;;;;;;;2.50;1.40;;;17.70;89.50;;;;;;4955868;28;20059;-39
2023/10/16 12:38:56;;;;;;;2.22;1.20;;;17.70;89.40;;;;;;4955973;29;20062;-38
2023/10/16 12:41:24;;;;;;;2.47;1.30;;;17.70;89.50;;;;;;4956046;29;20058;-39
2023/10/16 12:43:50;;;;;;;2.83;1.20;;;17.70;89.50;;;;;;4955985;29;20445;-41
2023/10/16 12:46:17;;;;;;;1.95;1.10;;;17.70;89.50;;;;;;4955774;28;20027;-39
2023/10/16 12:48:44;;;;;;;1.83;1.08;;;17.70;89.50;;;;;;4955715;28;20508;-39
2023/10/16 12:51:10;;;;;;;1.35;0.90;;;17.70;89.50;;;;;;4955006;28;20055;-39
2023/10/16 12:53:38;;;;;;;2.78;1.00;;;17.70;89.50;;;;;;4955785;28;20028;-40
2023/10/16 12:56:05;;;;;;;2.28;1.15;;;17.70;89.60;;;;;;4955771;28;20117;-43
2023/10/16 12:58:33;;;;;;;2.33;1.10;;;17.70;89.50;;;;;;4956069;29;20019;-39
2023/10/16 13:00:59;;;;;;;2.10;1.13;;;17.80;89.70;;;;;;4970560;28;20038;-39
2023/10/16 13:03:25;;;;;;;1.15;0.80;;;17.70;89.60;;;;;;4955559;29;20151;-39
2023/10/16 13:05:52;;;;;;;4.47;0.95;;;17.70;89.50;;;;;;4955565;29;20035;-39
2023/10/16 13:08:20;;;;;;;1.83;1.00;;;17.70;89.50;;;;;;4955380;28;20081;-39
2023/10/16 13:10:48;;;;;;;1.55;0.70;;;17.70;89.60;;;;;;4954159;28;20113;-39
2023/10/16 13:13:15;;;;;;;1.13;0.90;;;17.70;89.70;;;;;;4955469;28;20024;-41
2023/10/16 13:15:45;;;;;;;2.80;1.02;;;17.70;89.60;;;;;;4955315;29;20034;-39
2023/10/16 13:18:11;;;;;;;1.52;0.95;;;17.70;89.60;;;;;;4955209;28;20046;-41
2023/10/16 13:20:37;;;;;;;1.33;0.90;;;17.70;89.50;;;;;;4955299;28;20027;-37
2023/10/16 13:23:05;;;;;;;2.33;0.98;;;17.70;89.50;;;;;;4955292;29;20027;-37
2023/10/16 13:25:31;;;;;;;1.83;0.98;;;17.70;89.50;;;;;;4955227;28;20035;-37
2023/10/16 13:27:58;;;;;;;1.52;0.95;;;17.70;89.50;;;;;;4955171;29;20378;-38
2023/10/16 13:30:25;;;;;;;1.70;1.05;;;17.70;89.50;;;;;;4954990;28;20023;-38
2023/10/16 13:32:52;;;;;;;1.20;0.85;;;17.70;89.50;;;;;;4955088;29;20047;-37
2023/10/16 13:35:20;;;;;;;2.63;1.10;;;17.70;89.50;;;;;;4955022;29;20493;-37
2023/10/16 13:37:47;;;;;;;1.35;0.80;;;17.70;89.50;;;;;;4954930;29;20044;-37
2023/10/16 13:40:21;;;;;;;1.35;0.80;;;17.70;89.40;;;;;;4955356;29;20078;-40
2023/10/16 13:43:00;;;;;;;0.88;0.80;;;17.70;89.40;;;;;;4955036;28;20031;-37
2023/10/16 13:45:27;;;;;;;1.95;1.10;;;17.80;89.40;;;;;;4955068;28;20031;-37
2023/10/16 13:47:54;;;;;;;1.52;0.68;;;17.70;89.50;;;;;;4954891;29;20416;-37
2023/10/16 13:50:28;;;;;;;1.38;0.90;;;17.80;89.50;;;;;;4954743;29;20079;-37
2023/10/16 13:52:54;;;;;;;2.25;0.80;;;17.70;89.40;;;;;;4954701;28;20446;-38
2023/10/16 13:55:22;;;;;;;3.35;1.10;;;17.70;89.30;;;;;;4954604;29;20034;-37
2023/10/16 13:57:49;;;;;;;1.60;0.80;;;17.70;89.20;;;;;;4954559;29;20027;-36
2023/10/16 14:00:29;;;;;;;2.88;0.70;;;17.70;89.30;;;;;;4954586;29;20485;-37
2023/10/16 14:02:57;;;;;;;1.52;0.77;;;17.70;89.30;;;;;;4953621;28;20481;-37
2023/10/16 14:05:23;;;;;;;1.92;0.95;;;17.70;89.30;;;;;;4954543;28;20030;-37
2023/10/16 14:07:53;;;;;;;1.40;0.95;;;17.70;89.30;;;;;;4954465;28;20051;-37
2023/10/16 14:10:21;;;;;;;1.88;0.80;;;17.70;89.40;;;;;;4954798;28;20354;-38
2023/10/16 14:12:58;;;;;;;1.08;0.68;;;17.70;89.40;;;;;;4954411;28;20035;-37
2023/10/16 14:15:26;;;;;;;1.48;1.00;;;17.70;89.40;;;;;;4954387;28;20039;-39
2023/10/16 14:17:53;;;;;;;1.35;0.82;;;17.70;89.30;;;;;;4954629;28;20024;-37
2023/10/16 14:20:34;;;;;;;1.88;0.75;;;17.70;89.30;;;;;;4954211;29;20567;-36
2023/10/16 14:23:03;;;;;;;1.48;0.77;;;17.70;89.40;;;;;;4954225;28;20038;-36
2023/10/16 14:25:32;;;;;;;1.27;0.73;;;17.70;89.40;;;;;;4954256;29;20070;-37
2023/10/16 14:30:46;;;;;;;1.48;0.70;;;17.70;89.40;;;;;;4954263;29;20118;-39
2023/10/16 14:33:12;;;;;;;4.80;0.90;;;17.70;89.40;;;;;;4945300;28;20027;-36
2023/10/16 14:35:38;;;;;;;5.50;0.75;;;16.90;76.60;;;;;;4968894;28;20023;-36
2023/10/16 14:38:05;;;;;;;1.95;0.73;;;16.70;79.60;;;;;;4953912;28;20023;-37
2023/10/16 14:40:35;;;;;;;2.53;0.75;;;16.70;81.10;;;;;;4968681;28;20032;-38
2023/10/16 14:43:01;;;;;;;3.15;0.90;;;16.80;82.30;;;;;;4954141;29;20544;-36
2023/10/16 14:45:27;;;;;;;1.90;0.70;;;16.90;82.90;;;;;;4953683;29;20571;-37
2023/10/16 14:47:54;;;;;;;2.00;0.60;;;16.90;83.20;;;;;;4953765;29;20119;-37
2023/10/16 14:50:20;;;;;;;1.30;0.50;;;16.90;83.50;;;;;;4953751;29;20034;-37
2023/10/16 14:52:47;;;;;;;2.13;0.50;;;17.00;84.00;;;;;;4953604;29;20028;-36
2023/10/16 14:55:15;;;;;;;2.13;0.50;;;17.00;84.10;;;;;;4953569;28;20019;-37
2023/10/16 14:57:40;;;;;;;3.30;0.63;;;17.00;84.50;;;;;;4953597;29;20023;-37